TimeMDT,TemperatureF,Dew PointF,Humidity,Sea Level PressureIn,VisibilityMPH,Wind Direction,Wind SpeedMPH,Gust SpeedMPH,PrecipitationIn,Events,Conditions,WindDirDegrees,DateUTC
12:15 AM,39.2,24.8,56,29.76,10.0,NW,35.7,47.2,0.46,Rain,Heavy Rain,310,2012-10-18 06:15:00
12:35 AM,39.2,24.8,56,29.77,10.0,NW,32.2,43.7,1.26,Rain,Heavy Rain,310,2012-10-18 06:35:00
12:55 AM,39.2,24.8,56,29.77,10.0,NW,36.8,43.7,1.89,Rain,Heavy Rain,310,2012-10-18 06:55:00
1:15 AM,39.2,24.8,56,29.78,10.0,NW,31.1,46.0,0.23,Rain,Heavy Rain,310,2012-10-18 07:15:00
1:35 AM,39.2,24.8,56,29.79,10.0,NW,31.1,42.6,0.29,,Overcast,310,2012-10-18 07:35:00
1:55 AM,39.2,26.6,61,29.80,10.0,NW,33.4,46.0,0.30,,Overcast,310,2012-10-18 07:55:00
2:15 AM,39.2,26.6,61,29.80,10.0,NW,34.5,43.7,0.02,Rain,Light Rain,310,2012-10-18 08:15:00
2:35 AM,39.2,26.6,61,29.81,10.0,NW,31.1,43.7,0.02,,Overcast,310,2012-10-18 08:35:00
2:55 AM,39.2,28.4,65,29.81,10.0,NW,34.5,48.3,0.15,Rain,Light Rain,310,2012-10-18 08:55:00
3:15 AM,37.4,28.4,70,29.81,10.0,NW,34.5,42.6,N/A,,Overcast,310,2012-10-18 09:15:00
3:35 AM,37.4,28.4,70,29.83,10.0,NW,34.5,44.9,N/A,,Overcast,310,2012-10-18 09:35:00
3:55 AM,37.4,28.4,70,29.83,10.0,NW,34.5,48.3,N/A,,Overcast,310,2012-10-18 09:55:00
4:15 AM,37.4,30.2,75,29.84,10.0,NW,34.5,49.5,N/A,Rain,Light Rain,320,2012-10-18 10:15:00
4:35 AM,37.4,30.2,75,29.85,10.0,NW,34.5,42.6,0.02,Rain,Light Rain,310,2012-10-18 10:35:00
4:55 AM,37.4,30.2,75,29.86,10.0,NW,36.8,51.8,0.02,,Overcast,320,2012-10-18 10:55:00
5:15 AM,37.4,30.2,75,29.86,10.0,NW,41.4,47.2,N/A,Rain,Light Rain,320,2012-10-18 11:15:00
5:35 AM,37.4,30.2,75,29.87,10.0,NW,31.1,49.5,N/A,Rain,Light Rain,320,2012-10-18 11:35:00
5:55 AM,37.4,32.0,81,29.88,10.0,NW,33.4,42.6,0.06,Rain,Light Rain,320,2012-10-18 11:55:00
6:15 AM,37.4,32.0,81,29.89,10.0,NW,32.2,44.9,0.25,Rain,Heavy Rain,320,2012-10-18 12:15:00
6:35 AM,37.4,32.0,81,29.90,10.0,NW,29.9,40.3,0.78,Rain,Heavy Rain,310,2012-10-18 12:35:00
6:55 AM,37.4,32.0,81,29.91,10.0,NW,31.1,47.2,1.12,Rain,Rain,310,2012-10-18 12:55:00
7:15 AM,35.6,30.2,81,29.91,10.0,NW,29.9,42.6,0.39,Rain,Heavy Rain,310,2012-10-18 13:15:00
7:35 AM,35.6,32.0,87,29.92,10.0,NW,27.6,39.1,0.94,Rain,Heavy Rain,310,2012-10-18 13:35:00
7:55 AM,35.6,32.0,87,29.93,10.0,NW,29.9,38.0,1.35,Rain,Heavy Rain,310,2012-10-18 13:55:00
8:15 AM,35.6,30.2,81,29.94,10.0,WNW,28.8,36.8,0.11,Rain,Heavy Rain,300,2012-10-18 14:15:00
8:35 AM,35.6,30.2,81,29.95,10.0,WNW,28.8,38.0,0.42,Rain,Heavy Rain,300,2012-10-18 14:35:00
8:55 AM,35.6,30.2,81,29.96,10.0,WNW,27.6,38.0,0.83,Rain,Heavy Rain,300,2012-10-18 14:55:00
9:15 AM,35.6,30.2,81,29.98,10.0,NW,26.5,36.8,0.77,Rain,Heavy Rain,310,2012-10-18 15:15:00
9:35 AM,35.6,30.2,81,29.98,10.0,NW,31.1,42.6,1.82,Rain,Heavy Rain,310,2012-10-18 15:35:00
9:55 AM,35.6,30.2,81,29.99,10.0,NW,28.8,36.8,2.45,Rain,Heavy Rain,310,2012-10-18 15:55:00
10:15 AM,35.6,32.0,87,29.99,10.0,NW,28.8,35.7,0.29,Rain,Heavy Rain,310,2012-10-18 16:15:00
10:35 AM,35.6,32.0,87,30.00,10.0,NW,27.6,36.8,0.56,Rain,Rain,310,2012-10-18 16:35:00
10:55 AM,35.6,32.0,87,30.01,10.0,NW,24.2,32.2,0.64,Rain,Light Rain,310,2012-10-18 16:55:00
11:15 AM,37.4,32.0,81,30.02,10.0,NW,28.8,35.7,0.09,Rain,Rain,310,2012-10-18 17:15:00
11:35 AM,37.4,32.0,81,30.02,10.0,NW,24.2,34.5,0.24,Rain,Rain,310,2012-10-18 17:35:00
11:55 AM,37.4,32.0,81,30.02,10.0,NW,26.5,36.8,0.43,Rain,Rain,310,2012-10-18 17:55:00
12:15 PM,37.4,32.0,81,30.02,10.0,NW,27.6,42.6,0.04,Rain,Rain,320,2012-10-18 18:15:00
12:35 PM,37.4,32.0,81,30.03,10.0,NW,27.6,36.8,0.46,Rain,Rain,310,2012-10-18 18:35:00
12:55 PM,39.2,32.0,75,30.02,10.0,NW,25.3,35.7,0.68,Rain,Rain,320,2012-10-18 18:55:00
1:15 PM,41.0,32.0,70,30.02,10.0,NW,26.5,38.0,N/A,,Overcast,320,2012-10-18 19:15:00
1:35 PM,41.0,32.0,70,30.02,10.0,NW,29.9,39.1,N/A,,Overcast,320,2012-10-18 19:35:00
1:55 PM,41.0,32.0,70,30.03,10.0,NW,26.5,33.4,N/A,,Overcast,320,2012-10-18 19:55:00
2:15 PM,42.8,32.0,66,30.02,10.0,NW,26.5,34.5,N/A,,Overcast,320,2012-10-18 20:15:00
2:35 PM,44.6,32.0,61,30.02,10.0,NW,26.5,35.7,N/A,,Mostly Cloudy,310,2012-10-18 20:35:00
2:55 PM,44.6,32.0,61,30.02,10.0,NW,24.2,36.8,N/A,,Mostly Cloudy,320,2012-10-18 20:55:00
3:15 PM,44.6,32.0,61,30.03,10.0,NNW,25.3,33.4,0.41,Rain,Light Rain,340,2012-10-18 21:15:00
3:35 PM,44.6,32.0,61,30.03,10.0,North,20.7,28.8,0.88,Rain,Heavy Rain,350,2012-10-18 21:35:00
3:55 PM,44.6,30.2,57,30.04,10.0,NNW,24.2,29.9,1.17,Rain,Heavy Rain,340,2012-10-18 21:55:00
4:15 PM,44.6,30.2,57,30.03,10.0,NNW,23.0,31.1,0.39,Rain,Heavy Rain,340,2012-10-18 22:15:00
4:35 PM,44.6,30.2,57,30.04,10.0,NNW,19.6,27.6,1.30,Rain,Heavy Rain,330,2012-10-18 22:35:00
4:55 PM,44.6,30.2,57,30.04,10.0,NNW,19.6,26.5,1.79,Rain,Heavy Rain,330,2012-10-18 22:55:00
5:15 PM,42.8,32.0,66,30.04,10.0,NNW,17.3,24.2,0.59,Rain,Heavy Rain,340,2012-10-18 23:15:00
5:35 PM,41.0,30.2,65,30.05,10.0,NNW,12.7,18.4,1.49,Rain,Heavy Rain,340,2012-10-18 23:35:00
5:55 PM,39.2,30.2,70,30.05,10.0,NNW,12.7,-,2.79,Rain,Heavy Rain,330,2012-10-18 23:55:00
6:15 PM,37.4,30.2,75,30.05,10.0,NW,11.5,-,0.63,Rain,Heavy Rain,320,2012-10-19 00:15:00
6:35 PM,37.4,30.2,75,30.05,10.0,NNW,9.2,-,1.67,Rain,Heavy Rain,330,2012-10-19 00:35:00
6:55 PM,35.6,30.2,81,30.05,10.0,NNW,6.9,-,2.33,Rain,Heavy Rain,330,2012-10-19 00:55:00
7:15 PM,32.0,28.4,87,30.05,10.0,NW,9.2,-,0.50,Rain,Heavy Rain,320,2012-10-19 01:15:00
7:35 PM,32.0,28.4,87,30.05,10.0,NW,9.2,-,1.17,Rain,Heavy Rain,320,2012-10-19 01:35:00
7:55 PM,32.0,28.4,87,30.05,10.0,NW,10.4,-,1.81,Rain,Heavy Rain,310,2012-10-19 01:55:00
8:15 PM,32.0,28.4,87,30.05,10.0,NW,9.2,-,0.80,Rain,Heavy Rain,310,2012-10-19 02:15:00
8:35 PM,32.0,28.4,87,30.06,10.0,NW,8.1,-,1.67,Rain,Heavy Rain,310,2012-10-19 02:35:00
8:55 PM,32.0,28.4,87,30.06,10.0,NNW,8.1,-,1.83,,Clear,330,2012-10-19 02:55:00
9:15 PM,28.4,26.6,93,30.06,10.0,NW,8.1,-,N/A,,Clear,320,2012-10-19 03:15:00
9:35 PM,28.4,28.4,100,30.06,10.0,NW,9.2,-,N/A,,Clear,310,2012-10-19 03:35:00
9:55 PM,30.2,28.4,93,30.05,10.0,NW,8.1,-,N/A,,Clear,320,2012-10-19 03:55:00